Time;durP1;ratioP1;P1;durP2;ratioP2;P2;SDS_P1;SDS_P2;PMS_P1;PMS_P2;Temp;Humidity;BMP_temperature;BMP_pressure;BME280_temperature;BME280_humidity;BME280_pressure;Samples;Min_cycle;Max_cycle;Signal;HPM_P1;HPM_P2
2023/07/02 00:02:21;;;;;;;0.90;0.90;;;;;;;;;;5016851;28;21424;-45
2023/07/02 00:04:47;;;;;;;0.93;0.90;;;;;;;;;;5017525;28;20192;-45
2023/07/02 00:07:16;;;;;;;1.05;0.95;;;;;;;;;;5016399;28;20200;-45
2023/07/02 00:09:42;;;;;;;1.95;1.40;;;;;;;;;;5016849;28;20192;-45
2023/07/02 00:12:08;;;;;;;0.93;0.90;;;;;;;;;;5022340;28;20181;-46
2023/07/02 00:14:34;;;;;;;3.50;1.20;;;;;;;;;;5017081;28;20177;-46
2023/07/02 00:17:00;;;;;;;1.83;1.00;;;;;;;;;;5016046;28;20184;-46
2023/07/02 00:19:26;;;;;;;1.13;0.90;;;;;;;;;;5019943;28;20275;-46
2023/07/02 00:21:55;;;;;;;0.80;0.80;;;;;;;;;;5021468;28;20247;-46
2023/07/02 00:24:21;;;;;;;1.05;0.98;;;;;;;;;;5021104;28;20619;-46
2023/07/02 00:26:47;;;;;;;1.17;0.93;;;;;;;;;;5016607;28;20214;-46
2023/07/02 00:29:13;;;;;;;1.17;1.00;;;;;;;;;;5016890;28;20192;-46
2023/07/02 00:31:40;;;;;;;2.35;0.90;;;;;;;;;;5018972;28;20294;-46
2023/07/02 00:34:05;;;;;;;0.80;0.80;;;;;;;;;;5020720;28;20177;-46
2023/07/02 00:36:32;;;;;;;0.70;0.70;;;;;;;;;;5016272;28;20187;-46
2023/07/02 00:38:58;;;;;;;1.33;0.90;;;;;;;;;;5021702;28;20188;-46
2023/07/02 00:41:24;;;;;;;1.58;0.80;;;;;;;;;;5016314;28;20220;-46
2023/07/02 00:43:54;;;;;;;1.13;1.02;;;;;;;;;;5016584;28;20250;-46
2023/07/02 00:46:20;;;;;;;1.08;0.93;;;;;;;;;;5021639;28;20172;-46
2023/07/02 00:48:47;;;;;;;1.48;1.00;;;;;;;;;;5016888;28;20270;-46
2023/07/02 00:51:17;;;;;;;1.15;1.05;;;;;;;;;;5016356;28;20267;-46
2023/07/02 00:53:47;;;;;;;2.95;1.00;;;;;;;;;;5016566;28;20271;-46
2023/07/02 00:56:13;;;;;;;0.93;0.90;;;;;;;;;;5016415;28;20555;-46
2023/07/02 00:58:40;;;;;;;0.90;0.90;;;;;;;;;;5018504;28;20192;-46
2023/07/02 01:01:07;;;;;;;0.80;0.80;;;;;;;;;;5019325;28;20236;-46
2023/07/02 01:03:37;;;;;;;1.30;0.90;;;;;;;;;;5016579;28;20181;-46
2023/07/02 01:06:03;;;;;;;1.02;1.00;;;;;;;;;;5016287;28;20633;-46
2023/07/02 01:08:29;;;;;;;0.90;0.90;;;;;;;;;;5022094;28;20177;-46
2023/07/02 01:10:55;;;;;;;0.98;0.70;;;;;;;;;;5023457;28;20180;-46
2023/07/02 01:13:22;;;;;;;1.05;0.95;;;;;;;;;;5015298;28;20204;-45
2023/07/02 01:15:48;;;;;;;0.80;0.80;;;;;;;;;;5016187;28;20180;-45
2023/07/02 01:18:15;;;;;;;0.88;0.88;;;;;;;;;;5016402;28;20243;-45
2023/07/02 01:20:41;;;;;;;2.22;1.00;;;;;;;;;;5013226;28;20247;-46
2023/07/02 01:23:09;;;;;;;1.85;0.70;;;;;;;;;;5022323;28;20187;-46
2023/07/02 01:25:36;;;;;;;2.28;1.17;;;;;;;;;;5015886;28;20173;-45
2023/07/02 01:28:02;;;;;;;1.77;1.00;;;;;;;;;;5022734;28;20183;-45
2023/07/02 01:30:28;;;;;;;3.47;1.20;;;;;;;;;;5016355;28;20203;-45
2023/07/02 01:32:54;;;;;;;1.05;0.90;;;;;;;;;;5020689;28;20463;-45
2023/07/02 01:35:20;;;;;;;1.63;1.00;;;;;;;;;;5015918;28;20564;-45
2023/07/02 01:37:46;;;;;;;0.85;0.80;;;;;;;;;;5019278;28;20203;-45
2023/07/02 01:40:12;;;;;;;0.63;0.60;;;;;;;;;;5017932;28;20657;-45
2023/07/02 01:42:39;;;;;;;1.83;0.80;;;;;;;;;;5015647;28;20195;-45
2023/07/02 01:45:05;;;;;;;1.00;0.90;;;;;;;;;;5015297;28;20487;-45
2023/07/02 01:47:31;;;;;;;1.58;0.88;;;;;;;;;;5017168;28;20184;-46
2023/07/02 01:49:57;;;;;;;1.00;0.90;;;;;;;;;;5020150;28;20183;-46
2023/07/02 01:52:23;;;;;;;0.93;0.93;;;;;;;;;;5015161;28;20191;-46
2023/07/02 01:54:49;;;;;;;0.70;0.70;;;;;;;;;;5015110;28;20195;-46
2023/07/02 01:57:14;;;;;;;1.42;0.80;;;;;;;;;;5015193;28;20184;-46
2023/07/02 01:59:40;;;;;;;1.10;1.00;;;;;;;;;;5021646;28;20206;-46
2023/07/02 02:02:06;;;;;;;1.40;1.00;;;;;;;;;;5015039;28;20497;-46
2023/07/02 02:04:32;;;;;;;1.08;0.95;;;;;;;;;;5015767;28;20571;-46
2023/07/02 02:06:58;;;;;;;0.90;0.80;;;;;;;;;;5018466;28;20177;-46
2023/07/02 02:09:24;;;;;;;0.88;0.88;;;;;;;;;;5021722;28;20183;-46
2023/07/02 02:11:52;;;;;;;1.15;1.00;;;;;;;;;;5015239;28;20216;-46
2023/07/02 02:14:17;;;;;;;2.45;0.90;;;;;;;;;;5015253;28;20169;-46
2023/07/02 02:16:46;;;;;;;1.85;1.08;;;;;;;;;;5014533;28;21080;-46
2023/07/02 02:19:14;;;;;;;1.35;0.95;;;;;;;;;;5015815;28;20575;-46
2023/07/02 02:21:40;;;;;;;1.50;0.70;;;;;;;;;;5017863;28;20200;-46
2023/07/02 02:24:07;;;;;;;1.20;0.98;;;;;;;;;;5014996;28;20172;-46
2023/07/02 02:26:34;;;;;;;1.10;0.98;;;;;;;;;;5013845;28;20218;-46
2023/07/02 02:29:00;;;;;;;1.10;1.00;;;;;;;;;;5015214;28;20283;-46
2023/07/02 02:31:25;;;;;;;1.00;1.00;;;;;;;;;;5014496;28;20188;-46
2023/07/02 02:33:51;;;;;;;1.23;1.00;;;;;;;;;;5020611;28;20219;-46
2023/07/02 02:36:17;;;;;;;0.85;0.85;;;;;;;;;;5013936;28;20188;-46
2023/07/02 02:38:43;;;;;;;2.33;0.98;;;;;;;;;;5020199;28;20263;-46
2023/07/02 02:41:09;;;;;;;1.30;1.00;;;;;;;;;;5014521;28;20211;-46
2023/07/02 02:43:35;;;;;;;1.00;1.00;;;;;;;;;;5013534;28;20177;-46
2023/07/02 02:46:01;;;;;;;1.35;1.10;;;;;;;;;;5009473;28;20190;-46
2023/07/02 02:48:27;;;;;;;1.00;1.00;;;;;;;;;;5015283;28;20180;-46
2023/07/02 02:50:53;;;;;;;1.00;0.90;;;;;;;;;;5015209;28;20320;-46
2023/07/02 02:53:18;;;;;;;2.42;0.90;;;;;;;;;;5014332;28;20176;-46
2023/07/02 02:55:44;;;;;;;0.93;0.88;;;;;;;;;;5014576;28;20218;-46
2023/07/02 02:58:10;;;;;;;2.38;0.82;;;;;;;;;;5015129;28;20226;-46
2023/07/02 03:00:38;;;;;;;1.10;1.00;;;;;;;;;;5014445;28;20192;-46
2023/07/02 03:03:04;;;;;;;1.10;1.00;;;;;;;;;;5010931;28;20173;-46
2023/07/02 03:05:29;;;;;;;1.35;0.90;;;;;;;;;;5014343;28;20214;-46
2023/07/02 03:07:55;;;;;;;1.33;1.17;;;;;;;;;;5014153;28;20548;-46
2023/07/02 03:10:21;;;;;;;1.70;1.20;;;;;;;;;;5023222;28;20195;-46
2023/07/02 03:12:48;;;;;;;3.75;1.20;;;;;;;;;;5014324;28;20181;-46
2023/07/02 03:15:14;;;;;;;1.08;1.08;;;;;;;;;;5014401;28;20184;-46
2023/07/02 03:17:40;;;;;;;3.03;1.10;;;;;;;;;;5020008;28;20184;-46
2023/07/02 03:20:09;;;;;;;1.27;1.17;;;;;;;;;;5014310;28;20223;-46
2023/07/02 03:22:35;;;;;;;2.83;1.13;;;;;;;;;;5016342;28;20227;-46
2023/07/02 03:25:01;;;;;;;2.45;1.10;;;;;;;;;;5014433;28;20216;-46
2023/07/02 03:27:27;;;;;;;1.50;1.15;;;;;;;;;;5013344;28;20181;-46
2023/07/02 03:29:53;;;;;;;1.25;1.15;;;;;;;;;;5014338;28;20172;-45
2023/07/02 03:32:19;;;;;;;2.72;1.20;;;;;;;;;;5014402;28;20181;-45
2023/07/02 03:34:44;;;;;;;2.05;1.20;;;;;;;;;;5014469;28;20196;-45
2023/07/02 03:37:10;;;;;;;1.38;1.27;;;;;;;;;;5013420;28;20212;-45
2023/07/02 03:39:36;;;;;;;1.30;1.20;;;;;;;;;;5018007;28;20515;-45
2023/07/02 03:42:02;;;;;;;1.15;1.10;;;;;;;;;;5017621;28;20299;-46
2023/07/02 03:44:28;;;;;;;2.35;1.33;;;;;;;;;;5017497;28;20194;-45
2023/07/02 03:46:54;;;;;;;1.20;1.10;;;;;;;;;;5017587;28;20189;-46
2023/07/02 03:49:20;;;;;;;1.40;1.15;;;;;;;;;;5017451;28;20227;-46
2023/07/02 03:51:46;;;;;;;1.80;1.30;;;;;;;;;;5017343;28;20180;-46
2023/07/02 03:54:12;;;;;;;2.67;1.40;;;;;;;;;;5016724;28;20203;-45
2023/07/02 03:56:38;;;;;;;1.67;1.40;;;;;;;;;;5017488;28;20185;-46
2023/07/02 03:59:04;;;;;;;1.20;1.20;;;;;;;;;;5017441;28;20188;-45
2023/07/02 04:01:29;;;;;;;1.60;1.30;;;;;;;;;;5017256;28;20241;-46
2023/07/02 04:03:56;;;;;;;1.38;1.23;;;;;;;;;;5017555;28;20196;-46
2023/07/02 04:06:22;;;;;;;2.63;1.10;;;;;;;;;;5016739;28;20430;-46
2023/07/02 04:08:48;;;;;;;2.38;1.50;;;;;;;;;;5017302;28;20219;-45
2023/07/02 04:11:14;;;;;;;1.90;1.50;;;;;;;;;;5016590;28;20180;-45
2023/07/02 04:13:41;;;;;;;1.40;1.30;;;;;;;;;;5017466;28;20436;-45
2023/07/02 04:16:07;;;;;;;2.25;1.27;;;;;;;;;;5024189;28;20459;-45
2023/07/02 04:18:32;;;;;;;1.83;1.50;;;;;;;;;;5018516;28;20251;-45
2023/07/02 04:20:58;;;;;;;1.83;1.40;;;;;;;;;;5016700;28;20208;-45
2023/07/02 04:23:24;;;;;;;1.40;1.30;;;;;;;;;;5016704;28;20616;-45
2023/07/02 04:25:50;;;;;;;1.73;1.50;;;;;;;;;;5016798;28;20185;-46
2023/07/02 04:28:18;;;;;;;2.33;1.45;;;;;;;;;;5016696;28;20291;-46
2023/07/02 04:30:45;;;;;;;1.67;1.40;;;;;;;;;;5019455;28;20439;-46
2023/07/02 04:33:13;;;;;;;2.88;1.60;;;;;;;;;;5016841;28;20188;-46
2023/07/02 04:35:39;;;;;;;3.47;1.50;;;;;;;;;;5016609;28;20239;-45
2023/07/02 04:38:06;;;;;;;2.75;1.40;;;;;;;;;;5015768;28;20204;-45
2023/07/02 04:40:32;;;;;;;2.70;1.50;;;;;;;;;;5016626;28;20518;-45
2023/07/02 04:42:58;;;;;;;1.40;1.30;;;;;;;;;;5020107;28;20180;-45
2023/07/02 04:45:24;;;;;;;3.20;1.45;;;;;;;;;;5016586;28;20177;-45
2023/07/02 04:47:50;;;;;;;1.60;1.15;;;;;;;;;;5016090;28;20211;-45
2023/07/02 04:50:17;;;;;;;1.65;1.52;;;;;;;;;;5015785;28;20192;-45
2023/07/02 04:52:43;;;;;;;2.70;1.63;;;;;;;;;;5015788;28;20192;-45
2023/07/02 04:55:09;;;;;;;1.45;1.35;;;;;;;;;;5021089;28;20180;-45
2023/07/02 04:57:35;;;;;;;1.70;1.60;;;;;;;;;;5015710;28;20227;-45
2023/07/02 05:00:01;;;;;;;1.73;1.25;;;;;;;;;;5016281;28;20430;-45
2023/07/02 05:02:27;;;;;;;1.73;1.60;;;;;;;;;;5016172;28;20234;-45
2023/07/02 05:04:53;;;;;;;1.60;1.50;;;;;;;;;;5016296;28;20176;-45
2023/07/02 05:07:18;;;;;;;2.00;1.80;;;;;;;;;;5022665;28;20233;-45
2023/07/02 05:09:44;;;;;;;2.58;1.38;;;;;;;;;;5018119;28;20258;-45
2023/07/02 05:12:10;;;;;;;1.75;1.50;;;;;;;;;;5018697;28;20501;-45
2023/07/02 05:14:36;;;;;;;1.38;1.23;;;;;;;;;;5020638;28;20310;-45
2023/07/02 05:17:02;;;;;;;2.08;1.88;;;;;;;;;;5017976;28;20196;-45
2023/07/02 05:19:28;;;;;;;1.65;1.55;;;;;;;;;;5015864;28;20203;-45
2023/07/02 05:21:54;;;;;;;1.63;1.52;;;;;;;;;;5015427;28;20299;-45
2023/07/02 05:24:20;;;;;;;1.45;1.30;;;;;;;;;;5015661;28;20187;-45
2023/07/02 05:26:46;;;;;;;1.55;1.33;;;;;;;;;;5015522;28;20196;-46
2023/07/02 05:29:13;;;;;;;1.50;1.40;;;;;;;;;;5018470;28;20203;-46
2023/07/02 05:31:39;;;;;;;1.83;1.63;;;;;;;;;;5022928;28;20180;-46
2023/07/02 05:34:05;;;;;;;2.08;1.50;;;;;;;;;;5015795;28;20603;-46
2023/07/02 05:36:31;;;;;;;1.58;1.48;;;;;;;;;;5015459;28;20215;-45
2023/07/02 05:38:57;;;;;;;1.50;1.40;;;;;;;;;;5015689;28;20180;-46
2023/07/02 05:41:23;;;;;;;2.03;1.60;;;;;;;;;;5017198;28;20621;-46
2023/07/02 05:43:49;;;;;;;1.60;1.40;;;;;;;;;;5015658;28;20181;-46
2023/07/02 05:46:15;;;;;;;2.67;1.45;;;;;;;;;;5015133;28;20208;-46
2023/07/02 05:48:41;;;;;;;1.98;1.55;;;;;;;;;;5014877;28;20431;-46
2023/07/02 05:51:10;;;;;;;2.05;1.52;;;;;;;;;;5015313;28;20273;-46
2023/07/02 05:53:37;;;;;;;2.50;1.80;;;;;;;;;;5015362;28;20185;-46
2023/07/02 05:56:03;;;;;;;1.73;1.40;;;;;;;;;;5024900;28;20184;-46
2023/07/02 05:58:30;;;;;;;1.50;1.40;;;;;;;;;;5016661;28;20199;-46
2023/07/02 06:00:55;;;;;;;1.30;1.20;;;;;;;;;;5013798;28;20227;-46
2023/07/02 06:03:21;;;;;;;2.03;1.45;;;;;;;;;;5015136;28;20497;-46
2023/07/02 06:05:48;;;;;;;2.47;1.65;;;;;;;;;;5017929;28;20181;-45
2023/07/02 06:08:15;;;;;;;2.60;1.48;;;;;;;;;;5014663;28;20173;-46
2023/07/02 06:10:41;;;;;;;1.60;1.50;;;;;;;;;;5014618;28;20212;-46
2023/07/02 06:13:07;;;;;;;1.60;1.50;;;;;;;;;;5022747;28;20184;-46
2023/07/02 06:15:33;;;;;;;1.60;1.50;;;;;;;;;;5016176;28;20203;-46
2023/07/02 06:17:58;;;;;;;2.08;1.40;;;;;;;;;;5013958;28;20191;-46
2023/07/02 06:20:24;;;;;;;1.60;1.50;;;;;;;;;;5014233;28;20488;-46
2023/07/02 06:22:50;;;;;;;1.80;1.60;;;;;;;;;;5014293;28;20192;-46
2023/07/02 06:25:16;;;;;;;1.63;1.52;;;;;;;;;;5014883;28;20435;-46
2023/07/02 06:27:42;;;;;;;2.08;1.70;;;;;;;;;;5014174;28;20526;-46
2023/07/02 06:30:08;;;;;;;1.30;1.20;;;;;;;;;;5016035;28;20184;-46
2023/07/02 06:32:34;;;;;;;1.65;1.55;;;;;;;;;;5014219;28;20567;-46
2023/07/02 06:35:00;;;;;;;1.65;1.55;;;;;;;;;;5015054;28;20226;-45
2023/07/02 06:37:26;;;;;;;2.75;1.70;;;;;;;;;;5014006;28;20254;-46
2023/07/02 06:39:52;;;;;;;2.03;1.83;;;;;;;;;;5014816;28;20180;-45
2023/07/02 06:42:18;;;;;;;2.10;1.80;;;;;;;;;;5014781;28;20208;-45
2023/07/02 06:44:44;;;;;;;2.97;1.73;;;;;;;;;;5016362;28;20267;-45
2023/07/02 06:47:10;;;;;;;2.72;2.05;;;;;;;;;;5014243;28;20255;-46
2023/07/02 06:49:36;;;;;;;1.77;1.67;;;;;;;;;;5014642;28;20710;-45
2023/07/02 06:52:02;;;;;;;1.77;1.67;;;;;;;;;;5014067;28;20195;-45
2023/07/02 06:54:28;;;;;;;1.67;1.55;;;;;;;;;;5018490;28;20188;-45
2023/07/02 06:56:54;;;;;;;1.90;1.67;;;;;;;;;;5014687;28;20191;-45
2023/07/02 06:59:20;;;;;;;1.58;1.48;;;;;;;;;;5014737;28;20189;-46
2023/07/02 07:01:46;;;;;;;1.75;1.65;;;;;;;;;;5013710;28;20261;-45
2023/07/02 07:04:12;;;;;;;2.85;2.30;;;;;;;;;;5014474;28;20181;-45
2023/07/02 07:06:38;;;;;;;4.05;3.33;;;;;;;;;;5015781;28;20184;-45
2023/07/02 07:09:04;;;;;;;4.75;2.72;;;;;;;;;;5015815;28;20184;-45
2023/07/02 07:11:30;;;;;;;2.33;2.13;;;;;;;;;;5017501;28;20188;-45
2023/07/02 07:13:56;;;;;;;4.38;2.40;;;;;;;;;;5018331;28;20188;-45
2023/07/02 07:16:22;;;;;;;2.28;2.05;;;;;;;;;;5017885;28;20181;-45
2023/07/02 07:18:48;;;;;;;2.30;1.80;;;;;;;;;;5017850;28;20794;-45
2023/07/02 07:21:14;;;;;;;2.10;2.00;;;;;;;;;;5017262;28;20215;-44
2023/07/02 07:23:40;;;;;;;2.35;1.65;;;;;;;;;;5019637;28;20188;-44
2023/07/02 07:26:06;;;;;;;2.30;1.83;;;;;;;;;;5018216;28;20173;-44
2023/07/02 07:28:32;;;;;;;2.83;1.70;;;;;;;;;;5017801;28;20187;-44
2023/07/02 07:30:58;;;;;;;2.17;2.03;;;;;;;;;;5018426;28;20180;-44
2023/07/02 07:33:24;;;;;;;2.28;1.83;;;;;;;;;;5017656;28;20479;-45
2023/07/02 07:35:50;;;;;;;3.92;1.30;;;;;;;;;;5017607;28;20191;-45
2023/07/02 07:38:16;;;;;;;1.10;1.10;;;;;;;;;;5017264;28;20204;-45
2023/07/02 07:40:45;;;;;;;1.48;1.38;;;;;;;;;;5017809;28;20208;-45
2023/07/02 07:43:11;;;;;;;1.70;1.48;;;;;;;;;;5020463;28;20191;-45
2023/07/02 07:45:37;;;;;;;1.65;1.55;;;;;;;;;;5017392;28;20193;-45
2023/07/02 07:48:03;;;;;;;1.70;1.60;;;;;;;;;;5017298;28;20272;-45
2023/07/02 07:50:29;;;;;;;1.50;1.40;;;;;;;;;;5017095;28;20214;-45
2023/07/02 07:52:55;;;;;;;1.83;1.65;;;;;;;;;;5017064;28;20232;-45
2023/07/02 07:55:21;;;;;;;3.13;1.50;;;;;;;;;;5017641;28;20275;-45
2023/07/02 07:57:47;;;;;;;2.65;1.52;;;;;;;;;;5016796;28;20213;-45
2023/07/02 08:00:13;;;;;;;2.60;1.70;;;;;;;;;;5017390;28;20183;-46
2023/07/02 08:02:39;;;;;;;2.50;2.05;;;;;;;;;;5019579;28;20176;-46
2023/07/02 08:05:05;;;;;;;1.65;1.55;;;;;;;;;;5021022;28;20556;-46
2023/07/02 08:07:32;;;;;;;3.60;1.88;;;;;;;;;;5016411;28;20176;-46
2023/07/02 08:09:58;;;;;;;1.80;1.70;;;;;;;;;;5017334;28;20204;-46
2023/07/02 08:12:24;;;;;;;2.03;1.83;;;;;;;;;;5017005;28;20548;-46
2023/07/02 08:14:50;;;;;;;1.55;1.40;;;;;;;;;;5017220;28;20181;-46
2023/07/02 08:17:16;;;;;;;2.97;1.52;;;;;;;;;;5015871;28;20187;-45
2023/07/02 08:19:42;;;;;;;2.65;1.70;;;;;;;;;;5018765;28;20180;-45
2023/07/02 08:22:08;;;;;;;2.15;1.58;;;;;;;;;;5016745;28;20216;-45
2023/07/02 08:24:34;;;;;;;1.73;1.63;;;;;;;;;;5013687;28;20208;-45
2023/07/02 08:27:02;;;;;;;1.45;1.35;;;;;;;;;;5016571;28;20259;-46
2023/07/02 08:29:28;;;;;;;1.88;1.77;;;;;;;;;;5016999;28;20454;-46
2023/07/02 08:31:54;;;;;;;3.10;1.90;;;;;;;;;;5020210;28;20195;-47
2023/07/02 08:34:20;;;;;;;1.90;1.80;;;;;;;;;;5018095;28;20192;-45
2023/07/02 08:36:45;;;;;;;3.08;1.85;;;;;;;;;;5020167;28;20767;-45
2023/07/02 08:39:11;;;;;;;1.50;1.40;;;;;;;;;;5016582;28;20215;-45
2023/07/02 08:41:44;;;;;;;1.95;1.75;;;;;;;;;;5018168;28;20216;-45
2023/07/02 08:44:11;;;;;;;2.35;1.80;;;;;;;;;;5016080;28;20176;-45
2023/07/02 08:46:37;;;;;;;2.28;1.42;;;;;;;;;;5016295;28;20539;-45
2023/07/02 08:49:06;;;;;;;1.90;1.42;;;;;;;;;;5016090;28;20564;-45
2023/07/02 08:51:32;;;;;;;1.90;1.60;;;;;;;;;;5014360;28;20563;-45
2023/07/02 08:53:58;;;;;;;3.20;1.60;;;;;;;;;;5016666;28;20228;-45
2023/07/02 08:56:26;;;;;;;2.25;1.90;;;;;;;;;;5015799;28;20546;-45
2023/07/02 08:58:52;;;;;;;1.95;1.63;;;;;;;;;;5016304;28;20288;-46
2023/07/02 09:01:18;;;;;;;2.47;1.90;;;;;;;;;;5016005;28;20303;-46
2023/07/02 09:03:44;;;;;;;5.95;1.85;;;;;;;;;;5018644;28;20176;-46
2023/07/02 09:06:10;;;;;;;3.05;2.22;;;;;;;;;;5016334;28;20183;-45
2023/07/02 09:08:37;;;;;;;1.60;1.50;;;;;;;;;;5015870;28;20443;-45
2023/07/02 09:11:12;;;;;;;2.05;1.85;;;;;;;;;;5016269;28;20180;-45
2023/07/02 09:13:52;;;;;;;4.35;1.85;;;;;;;;;;5015765;28;20191;-45
2023/07/02 09:16:22;;;;;;;3.28;1.88;;;;;;;;;;5021946;28;20745;-45
2023/07/02 09:18:58;;;;;;;2.72;1.90;;;;;;;;;;5015528;28;20180;-45
2023/07/02 09:21:27;;;;;;;2.15;1.70;;;;;;;;;;5015775;28;20542;-45
2023/07/02 09:23:53;;;;;;;1.95;1.70;;;;;;;;;;5015367;28;20555;-45
2023/07/02 09:26:22;;;;;;;3.38;2.17;;;;;;;;;;5015452;28;20186;-45
2023/07/02 09:28:48;;;;;;;4.38;1.90;;;;;;;;;;5016680;28;20185;-45
2023/07/02 09:31:14;;;;;;;3.03;2.30;;;;;;;;;;5015835;28;20190;-45
2023/07/02 09:33:40;;;;;;;4.05;2.20;;;;;;;;;;5015534;28;20263;-46
2023/07/02 09:36:06;;;;;;;3.70;2.03;;;;;;;;;;5015790;28;20176;-46
2023/07/02 09:38:32;;;;;;;3.38;2.45;;;;;;;;;;5015099;28;20644;-46
2023/07/02 09:40:59;;;;;;;2.10;1.70;;;;;;;;;;5021950;28;20204;-46
2023/07/02 09:43:26;;;;;;;2.42;2.08;;;;;;;;;;5020504;28;20280;-46
2023/07/02 09:45:53;;;;;;;4.30;1.92;;;;;;;;;;5014660;28;20188;-46
2023/07/02 09:48:20;;;;;;;2.65;1.90;;;;;;;;;;5014822;28;20231;-46
2023/07/02 09:50:48;;;;;;;2.17;1.67;;;;;;;;;;5015243;28;20230;-46
2023/07/02 09:53:14;;;;;;;3.90;2.17;;;;;;;;;;5015031;28;20544;-46
2023/07/02 09:55:40;;;;;;;2.33;1.80;;;;;;;;;;5014964;28;20180;-46
2023/07/02 09:58:06;;;;;;;2.80;2.00;;;;;;;;;;5014529;28;20195;-46
2023/07/02 10:00:32;;;;;;;2.92;1.77;;;;;;;;;;5014905;28;20518;-46
2023/07/02 10:03:00;;;;;;;2.05;1.60;;;;;;;;;;5015643;28;20185;-46
2023/07/02 10:05:26;;;;;;;2.53;2.10;;;;;;;;;;5014639;28;20207;-46
2023/07/02 10:07:53;;;;;;;2.03;1.60;;;;;;;;;;5014690;28;20188;-46
2023/07/02 10:10:32;;;;;;;3.03;1.70;;;;;;;;;;5015203;28;20176;-46
2023/07/02 10:12:58;;;;;;;2.15;1.95;;;;;;;;;;5014687;28;20187;-46
2023/07/02 10:15:25;;;;;;;2.30;1.83;;;;;;;;;;5015119;28;20192;-46
2023/07/02 10:18:01;;;;;;;1.98;1.88;;;;;;;;;;5013252;28;20188;-46
2023/07/02 10:20:34;;;;;;;3.00;1.85;;;;;;;;;;5014763;28;20215;-46
2023/07/02 10:23:01;;;;;;;3.00;2.00;;;;;;;;;;5014021;28;20480;-46
2023/07/02 10:25:29;;;;;;;3.92;1.90;;;;;;;;;;5014529;28;20177;-46
2023/07/02 10:27:55;;;;;;;2.47;2.08;;;;;;;;;;5015419;28;20463;-46
2023/07/02 10:30:31;;;;;;;4.32;1.92;;;;;;;;;;5014614;28;20240;-46
2023/07/02 10:33:08;;;;;;;2.65;1.98;;;;;;;;;;5014369;28;20182;-46
2023/07/02 10:35:34;;;;;;;2.53;1.88;;;;;;;;;;5014644;28;20187;-46
2023/07/02 10:38:00;;;;;;;2.70;1.70;;;;;;;;;;5013818;28;20446;-46
2023/07/02 10:40:26;;;;;;;3.35;1.75;;;;;;;;;;5014827;28;20662;-46
2023/07/02 10:42:53;;;;;;;2.92;2.20;;;;;;;;;;5014477;28;20280;-46
2023/07/02 10:45:19;;;;;;;1.90;1.70;;;;;;;;;;5013368;28;20536;-47
2023/07/02 10:47:45;;;;;;;1.77;1.65;;;;;;;;;;5019346;28;20200;-46
2023/07/02 10:50:18;;;;;;;1.88;1.50;;;;;;;;;;5021143;28;20241;-46
2023/07/02 10:52:44;;;;;;;1.80;1.50;;;;;;;;;;5020892;28;20270;-46
2023/07/02 10:55:10;;;;;;;2.92;1.70;;;;;;;;;;5019559;28;20280;-46
2023/07/02 10:57:36;;;;;;;1.95;1.52;;;;;;;;;;5019518;28;20177;-45
2023/07/02 11:00:07;;;;;;;1.90;1.70;;;;;;;;;;5019884;28;20226;-46
2023/07/02 11:02:40;;;;;;;13.55;2.03;;;;;;;;;;5019599;28;20211;-46
2023/07/02 11:05:06;;;;;;;2.05;1.80;;;;;;;;;;5017473;28;20184;-45
2023/07/02 11:07:33;;;;;;;2.65;1.92;;;;;;;;;;5020626;28;20606;-45
2023/07/02 11:09:59;;;;;;;3.05;1.92;;;;;;;;;;5019783;28;20585;-45
2023/07/02 11:12:28;;;;;;;3.90;1.77;;;;;;;;;;5020735;28;20207;-45
2023/07/02 11:14:54;;;;;;;2.17;1.83;;;;;;;;;;5023798;28;20184;-45
2023/07/02 11:17:25;;;;;;;2.90;1.67;;;;;;;;;;5023033;28;20184;-47
2023/07/02 11:19:52;;;;;;;4.28;1.63;;;;;;;;;;5027623;28;20218;-46
2023/07/02 11:22:18;;;;;;;3.78;1.85;;;;;;;;;;5019998;28;20231;-46
2023/07/02 11:24:44;;;;;;;1.80;1.58;;;;;;;;;;5020747;28;20189;-46
2023/07/02 11:27:10;;;;;;;2.20;1.50;;;;;;;;;;5027205;28;20250;-46
2023/07/02 11:29:38;;;;;;;2.97;1.40;;;;;;;;;;5020782;28;20188;-46
2023/07/02 11:32:05;;;;;;;4.90;2.00;;;;;;;;;;5020518;28;20457;-46
2023/07/02 11:34:31;;;;;;;2.45;1.70;;;;;;;;;;5020877;28;20217;-46
2023/07/02 11:36:57;;;;;;;2.15;1.90;;;;;;;;;;5024362;28;20184;-46
2023/07/02 11:39:23;;;;;;;3.47;1.65;;;;;;;;;;5020198;28;20457;-46
2023/07/02 11:41:50;;;;;;;3.28;2.17;;;;;;;;;;5020810;28;20483;-46
2023/07/02 11:44:16;;;;;;;2.05;1.83;;;;;;;;;;5020777;28;20169;-46
2023/07/02 11:46:42;;;;;;;4.55;2.05;;;;;;;;;;5019761;28;20215;-45
2023/07/02 11:49:08;;;;;;;2.15;1.65;;;;;;;;;;5020819;28;20459;-46
2023/07/02 11:51:35;;;;;;;2.55;1.85;;;;;;;;;;5020396;28;20504;-46
2023/07/02 11:54:01;;;;;;;2.95;1.90;;;;;;;;;;5020178;28;20263;-46
2023/07/02 11:56:27;;;;;;;2.40;2.08;;;;;;;;;;5019762;28;20274;-46
2023/07/02 11:58:53;;;;;;;3.33;1.75;;;;;;;;;;5017323;28;20184;-46
2023/07/02 12:01:19;;;;;;;2.60;1.63;;;;;;;;;;5017618;28;20272;-46
2023/07/02 12:03:45;;;;;;;2.13;1.73;;;;;;;;;;5017501;28;20184;-46
2023/07/02 12:06:11;;;;;;;3.58;1.85;;;;;;;;;;5017194;28;20478;-46
2023/07/02 12:08:37;;;;;;;2.00;1.73;;;;;;;;;;5016760;28;20216;-46
2023/07/02 12:11:03;;;;;;;1.77;1.48;;;;;;;;;;5015720;28;20188;-46
2023/07/02 12:13:29;;;;;;;2.03;1.40;;;;;;;;;;5025783;28;20191;-46
2023/07/02 12:15:55;;;;;;;1.83;1.40;;;;;;;;;;5019952;28;20482;-46
2023/07/02 12:18:21;;;;;;;1.77;1.52;;;;;;;;;;5016712;28;20200;-46
2023/07/02 12:20:46;;;;;;;2.55;1.58;;;;;;;;;;5017043;28;20204;-46
2023/07/02 12:23:12;;;;;;;1.98;1.50;;;;;;;;;;5017926;28;20185;-46
2023/07/02 12:25:38;;;;;;;2.75;1.83;;;;;;;;;;5016826;28;20216;-46
2023/07/02 12:28:05;;;;;;;2.97;1.70;;;;;;;;;;5015616;28;20212;-46
2023/07/02 12:30:31;;;;;;;4.30;1.95;;;;;;;;;;5016654;28;20202;-46
2023/07/02 12:32:57;;;;;;;2.88;1.60;;;;;;;;;;5020884;28;20184;-46
2023/07/02 12:35:23;;;;;;;2.50;1.63;;;;;;;;;;5017106;28;20563;-46
2023/07/02 12:37:49;;;;;;;1.73;1.63;;;;;;;;;;5016030;28;20184;-46
2023/07/02 12:40:16;;;;;;;2.63;1.80;;;;;;;;;;5016761;28;20199;-46
2023/07/02 12:42:42;;;;;;;4.30;2.38;;;;;;;;;;5016560;28;20287;-46
2023/07/02 12:45:09;;;;;;;2.10;1.60;;;;;;;;;;5017676;28;20258;-46
2023/07/02 12:47:35;;;;;;;2.00;1.80;;;;;;;;;;5001129;28;20549;-46
2023/07/02 12:50:01;;;;;;;7.25;2.00;;;;;;;;;;5022600;28;20183;-46
2023/07/02 12:52:27;;;;;;;2.60;1.90;;;;;;;;;;5017597;28;20273;-46
2023/07/02 12:54:53;;;;;;;6.35;1.80;;;;;;;;;;5002556;28;20204;-46
2023/07/02 12:57:19;;;;;;;5.38;2.15;;;;;;;;;;5015641;28;20241;-46
2023/07/02 12:59:45;;;;;;;2.03;1.80;;;;;;;;;;5015363;28;20598;-46
2023/07/02 13:02:11;;;;;;;2.42;2.10;;;;;;;;;;5015830;28;20219;-46
2023/07/02 13:04:37;;;;;;;3.03;2.03;;;;;;;;;;5018669;28;20188;-46
2023/07/02 13:07:03;;;;;;;2.70;2.15;;;;;;;;;;5015630;28;20191;-46
2023/07/02 13:09:29;;;;;;;2.33;2.08;;;;;;;;;;5016009;28;20190;-46
2023/07/02 13:11:55;;;;;;;3.50;2.20;;;;;;;;;;5015187;28;20475;-46
2023/07/02 13:14:20;;;;;;;7.20;2.40;;;;;;;;;;5015638;28;20627;-46
2023/07/02 13:16:47;;;;;;;2.40;2.20;;;;;;;;;;5015199;28;20195;-46
2023/07/02 13:19:13;;;;;;;2.42;2.17;;;;;;;;;;5016265;28;20180;-46
2023/07/02 13:21:39;;;;;;;4.50;2.10;;;;;;;;;;5015701;28;20219;-46
2023/07/02 13:24:05;;;;;;;5.22;1.90;;;;;;;;;;5015650;28;20184;-46
2023/07/02 13:26:31;;;;;;;2.53;2.08;;;;;;;;;;5015388;28;20229;-46
2023/07/02 13:28:57;;;;;;;2.90;2.10;;;;;;;;;;5015677;28;20179;-46
2023/07/02 13:31:23;;;;;;;3.88;2.38;;;;;;;;;;5018838;28;20692;-46
2023/07/02 13:33:50;;;;;;;2.55;1.83;;;;;;;;;;5015542;28;20188;-46
2023/07/02 13:36:16;;;;;;;6.65;2.70;;;;;;;;;;5015587;28;20188;-45
2023/07/02 13:38:42;;;;;;;4.82;2.40;;;;;;;;;;5016512;28;20267;-45
2023/07/02 13:41:07;;;;;;;3.22;2.50;;;;;;;;;;5014922;28;20215;-46
2023/07/02 13:43:33;;;;;;;5.93;2.38;;;;;;;;;;5020662;28;20188;-46
2023/07/02 13:45:59;;;;;;;4.32;2.88;;;;;;;;;;4998190;28;20346;-47
2023/07/02 13:48:25;;;;;;;4.13;2.72;;;;;;;;;;5014807;28;20567;-46
2023/07/02 13:50:51;;;;;;;3.17;2.40;;;;;;;;;;5010501;28;20198;-46
2023/07/02 13:53:17;;;;;;;6.18;3.00;;;;;;;;;;5014767;28;20287;-46
2023/07/02 13:55:43;;;;;;;3.72;2.80;;;;;;;;;;5015208;28;20316;-46
2023/07/02 13:58:09;;;;;;;4.03;2.20;;;;;;;;;;5016085;28;20424;-46
2023/07/02 14:00:35;;;;;;;4.07;2.65;;;;;;;;;;5015048;28;20222;-46
2023/07/02 14:03:01;;;;;;;4.13;2.97;;;;;;;;;;4997790;28;20215;-46
2023/07/02 14:05:27;;;;;;;5.57;2.72;;;;;;;;;;5014770;28;20203;-46
2023/07/02 14:07:53;;;;;;;3.97;2.67;;;;;;;;;;5016402;28;20176;-46
2023/07/02 14:10:19;;;;;;;3.95;2.72;;;;;;;;;;5014084;28;20177;-46
2023/07/02 14:12:45;;;;;;;4.53;2.90;;;;;;;;;;5015224;28;20267;-46
2023/07/02 14:15:11;;;;;;;4.55;3.35;;;;;;;;;;5014869;28;20263;-46
2023/07/02 14:17:37;;;;;;;6.93;3.10;;;;;;;;;;5014454;28;20288;-46
2023/07/02 14:20:04;;;;;;;4.32;2.80;;;;;;;;;;5014917;28;20532;-46
2023/07/02 14:22:30;;;;;;;5.10;2.65;;;;;;;;;;5013594;28;20207;-46
2023/07/02 14:24:56;;;;;;;5.13;2.85;;;;;;;;;;5014443;28;20256;-46
2023/07/02 14:27:22;;;;;;;4.35;2.67;;;;;;;;;;5019928;28;20230;-46
2023/07/02 14:29:48;;;;;;;7.50;3.10;;;;;;;;;;5019789;28;20230;-45
2023/07/02 14:32:14;;;;;;;5.10;3.17;;;;;;;;;;5015208;28;20180;-46
2023/07/02 14:34:40;;;;;;;4.93;2.90;;;;;;;;;;5014348;28;20539;-46
2023/07/02 14:37:06;;;;;;;5.03;3.08;;;;;;;;;;5014127;28;20498;-46
2023/07/02 14:39:32;;;;;;;4.38;3.40;;;;;;;;;;5014044;28;20271;-46